sensor_id;sensor_type;location;lat;lon;timestamp;P1;durP1;ratioP1;P2;durP2;ratioP2
31206;SDS011;17834;52.992;8.856;2023-04-15T00:00:36;12.70;;;6.72;;
31206;SDS011;17834;52.992;8.856;2023-04-15T00:03:02;14.25;;;6.95;;
31206;SDS011;17834;52.992;8.856;2023-04-15T00:05:30;13.40;;;7.07;;
31206;SDS011;17834;52.992;8.856;2023-04-15T00:07:56;14.32;;;7.97;;
31206;SDS011;17834;52.992;8.856;2023-04-15T00:10:25;13.45;;;7.20;;
31206;SDS011;17834;52.992;8.856;2023-04-15T00:12:51;13.25;;;7.53;;
31206;SDS011;17834;52.992;8.856;2023-04-15T00:15:17;13.68;;;6.93;;
31206;SDS011;17834;52.992;8.856;2023-04-15T00:17:43;13.10;;;7.25;;
31206;SDS011;17834;52.992;8.856;2023-04-15T00:20:10;17.00;;;8.27;;
31206;SDS011;17834;52.992;8.856;2023-04-15T00:22:36;17.67;;;8.23;;
31206;SDS011;17834;52.992;8.856;2023-04-15T00:25:02;16.70;;;8.88;;
31206;SDS011;17834;52.992;8.856;2023-04-15T00:27:28;18.38;;;8.55;;
31206;SDS011;17834;52.992;8.856;2023-04-15T00:29:54;15.43;;;7.95;;
31206;SDS011;17834;52.992;8.856;2023-04-15T00:32:21;15.68;;;7.68;;
31206;SDS011;17834;52.992;8.856;2023-04-15T00:34:47;15.07;;;8.10;;
31206;SDS011;17834;52.992;8.856;2023-04-15T00:37:13;18.90;;;8.77;;
31206;SDS011;17834;52.992;8.856;2023-04-15T00:39:39;19.35;;;8.40;;
31206;SDS011;17834;52.992;8.856;2023-04-15T00:42:05;18.60;;;8.88;;
31206;SDS011;17834;52.992;8.856;2023-04-15T00:44:32;17.20;;;9.10;;
31206;SDS011;17834;52.992;8.856;2023-04-15T00:46:59;20.42;;;9.38;;
31206;SDS011;17834;52.992;8.856;2023-04-15T00:49:26;19.50;;;8.98;;
31206;SDS011;17834;52.992;8.856;2023-04-15T00:51:52;22.02;;;8.18;;
31206;SDS011;17834;52.992;8.856;2023-04-15T00:54:19;20.77;;;9.00;;
31206;SDS011;17834;52.992;8.856;2023-04-15T00:56:46;21.52;;;8.98;;
31206;SDS011;17834;52.992;8.856;2023-04-15T00:59:12;20.75;;;9.48;;
31206;SDS011;17834;52.992;8.856;2023-04-15T01:01:39;18.20;;;9.15;;
31206;SDS011;17834;52.992;8.856;2023-04-15T01:04:05;18.23;;;9.23;;
31206;SDS011;17834;52.992;8.856;2023-04-15T01:06:34;19.88;;;9.68;;
31206;SDS011;17834;52.992;8.856;2023-04-15T01:09:00;18.73;;;9.05;;
31206;SDS011;17834;52.992;8.856;2023-04-15T01:11:26;19.70;;;9.15;;
31206;SDS011;17834;52.992;8.856;2023-04-15T01:13:52;22.88;;;9.52;;
31206;SDS011;17834;52.992;8.856;2023-04-15T01:16:20;20.50;;;9.23;;
31206;SDS011;17834;52.992;8.856;2023-04-15T01:18:46;19.60;;;9.05;;
31206;SDS011;17834;52.992;8.856;2023-04-15T01:21:13;20.40;;;9.13;;
31206;SDS011;17834;52.992;8.856;2023-04-15T01:23:39;20.25;;;9.27;;
31206;SDS011;17834;52.992;8.856;2023-04-15T01:26:06;18.50;;;10.30;;
31206;SDS011;17834;52.992;8.856;2023-04-15T01:28:33;18.52;;;9.75;;
31206;SDS011;17834;52.992;8.856;2023-04-15T01:31:06;15.73;;;8.73;;
31206;SDS011;17834;52.992;8.856;2023-04-15T01:33:32;18.25;;;9.57;;
31206;SDS011;17834;52.992;8.856;2023-04-15T01:35:58;19.55;;;9.57;;
31206;SDS011;17834;52.992;8.856;2023-04-15T01:38:25;20.13;;;9.30;;
31206;SDS011;17834;52.992;8.856;2023-04-15T01:40:52;20.98;;;9.27;;
31206;SDS011;17834;52.992;8.856;2023-04-15T01:43:18;16.00;;;8.65;;
31206;SDS011;17834;52.992;8.856;2023-04-15T01:45:44;21.02;;;9.45;;
31206;SDS011;17834;52.992;8.856;2023-04-15T01:48:11;19.92;;;9.45;;
31206;SDS011;17834;52.992;8.856;2023-04-15T01:50:37;19.02;;;8.82;;
31206;SDS011;17834;52.992;8.856;2023-04-15T01:53:03;19.25;;;9.02;;
31206;SDS011;17834;52.992;8.856;2023-04-15T01:55:29;20.90;;;8.93;;
31206;SDS011;17834;52.992;8.856;2023-04-15T01:57:55;22.02;;;9.52;;
31206;SDS011;17834;52.992;8.856;2023-04-15T02:00:21;19.83;;;9.18;;
31206;SDS011;17834;52.992;8.856;2023-04-15T02:02:47;22.85;;;10.68;;
31206;SDS011;17834;52.992;8.856;2023-04-15T02:05:13;21.95;;;10.02;;
31206;SDS011;17834;52.992;8.856;2023-04-15T02:07:40;19.60;;;10.13;;
31206;SDS011;17834;52.992;8.856;2023-04-15T02:10:07;19.98;;;10.35;;
31206;SDS011;17834;52.992;8.856;2023-04-15T02:12:34;21.70;;;10.10;;
31206;SDS011;17834;52.992;8.856;2023-04-15T02:15:00;19.17;;;9.52;;
31206;SDS011;17834;52.992;8.856;2023-04-15T02:17:26;19.65;;;9.25;;
31206;SDS011;17834;52.992;8.856;2023-04-15T02:19:52;20.55;;;9.98;;
31206;SDS011;17834;52.992;8.856;2023-04-15T02:22:18;19.30;;;9.38;;
31206;SDS011;17834;52.992;8.856;2023-04-15T02:24:44;19.73;;;9.63;;
31206;SDS011;17834;52.992;8.856;2023-04-15T02:27:14;21.20;;;10.07;;
31206;SDS011;17834;52.992;8.856;2023-04-15T02:29:40;22.20;;;10.30;;
31206;SDS011;17834;52.992;8.856;2023-04-15T02:32:06;20.58;;;9.85;;
31206;SDS011;17834;52.992;8.856;2023-04-15T02:34:32;17.15;;;9.15;;
31206;SDS011;17834;52.992;8.856;2023-04-15T02:36:58;20.17;;;9.68;;
31206;SDS011;17834;52.992;8.856;2023-04-15T02:39:25;21.88;;;10.15;;
31206;SDS011;17834;52.992;8.856;2023-04-15T02:41:51;20.77;;;9.77;;
31206;SDS011;17834;52.992;8.856;2023-04-15T02:44:17;18.15;;;9.85;;
31206;SDS011;17834;52.992;8.856;2023-04-15T02:46:47;18.88;;;8.80;;
31206;SDS011;17834;52.992;8.856;2023-04-15T02:49:16;19.42;;;8.98;;
31206;SDS011;17834;52.992;8.856;2023-04-15T02:51:42;18.85;;;9.27;;
31206;SDS011;17834;52.992;8.856;2023-04-15T02:54:11;18.45;;;9.07;;
31206;SDS011;17834;52.992;8.856;2023-04-15T02:56:38;18.70;;;10.13;;
31206;SDS011;17834;52.992;8.856;2023-04-15T02:59:04;21.42;;;9.27;;
31206;SDS011;17834;52.992;8.856;2023-04-15T03:01:31;18.20;;;8.95;;
31206;SDS011;17834;52.992;8.856;2023-04-15T03:03:56;20.60;;;9.70;;
31206;SDS011;17834;52.992;8.856;2023-04-15T03:06:22;19.40;;;8.60;;
31206;SDS011;17834;52.992;8.856;2023-04-15T03:08:49;18.83;;;9.23;;
31206;SDS011;17834;52.992;8.856;2023-04-15T03:11:15;16.50;;;8.27;;
31206;SDS011;17834;52.992;8.856;2023-04-15T03:13:42;17.70;;;8.88;;
31206;SDS011;17834;52.992;8.856;2023-04-15T03:16:08;18.27;;;9.35;;
31206;SDS011;17834;52.992;8.856;2023-04-15T03:18:35;18.98;;;7.55;;
31206;SDS011;17834;52.992;8.856;2023-04-15T03:21:01;13.55;;;6.78;;
31206;SDS011;17834;52.992;8.856;2023-04-15T03:23:27;18.60;;;8.35;;
31206;SDS011;17834;52.992;8.856;2023-04-15T03:25:53;15.75;;;7.90;;
31206;SDS011;17834;52.992;8.856;2023-04-15T03:28:21;17.88;;;7.85;;
31206;SDS011;17834;52.992;8.856;2023-04-15T03:30:47;20.88;;;8.63;;
31206;SDS011;17834;52.992;8.856;2023-04-15T03:33:13;18.27;;;9.23;;
31206;SDS011;17834;52.992;8.856;2023-04-15T03:35:38;20.38;;;10.02;;
31206;SDS011;17834;52.992;8.856;2023-04-15T03:38:05;20.27;;;9.05;;
31206;SDS011;17834;52.992;8.856;2023-04-15T03:40:31;20.50;;;9.25;;
31206;SDS011;17834;52.992;8.856;2023-04-15T03:42:57;23.15;;;11.30;;
31206;SDS011;17834;52.992;8.856;2023-04-15T03:45:23;23.50;;;10.85;;
31206;SDS011;17834;52.992;8.856;2023-04-15T03:47:49;23.40;;;11.23;;
31206;SDS011;17834;52.992;8.856;2023-04-15T03:50:15;22.33;;;10.05;;
31206;SDS011;17834;52.992;8.856;2023-04-15T03:52:41;23.63;;;10.45;;
31206;SDS011;17834;52.992;8.856;2023-04-15T03:55:07;17.98;;;10.30;;
31206;SDS011;17834;52.992;8.856;2023-04-15T03:57:33;22.10;;;9.95;;
31206;SDS011;17834;52.992;8.856;2023-04-15T04:00:03;21.02;;;10.32;;
31206;SDS011;17834;52.992;8.856;2023-04-15T04:02:29;20.00;;;9.52;;
31206;SDS011;17834;52.992;8.856;2023-04-15T04:04:55;21.33;;;9.85;;
31206;SDS011;17834;52.992;8.856;2023-04-15T04:07:22;21.58;;;10.15;;
31206;SDS011;17834;52.992;8.856;2023-04-15T04:09:48;18.70;;;9.25;;
31206;SDS011;17834;52.992;8.856;2023-04-15T04:12:14;21.75;;;9.65;;
31206;SDS011;17834;52.992;8.856;2023-04-15T04:14:40;20.77;;;10.25;;
31206;SDS011;17834;52.992;8.856;2023-04-15T04:17:06;22.73;;;9.73;;
31206;SDS011;17834;52.992;8.856;2023-04-15T04:19:32;20.45;;;10.27;;
31206;SDS011;17834;52.992;8.856;2023-04-15T04:21:58;19.58;;;9.35;;
31206;SDS011;17834;52.992;8.856;2023-04-15T04:24:24;26.33;;;10.95;;
31206;SDS011;17834;52.992;8.856;2023-04-15T04:26:50;18.48;;;9.00;;
31206;SDS011;17834;52.992;8.856;2023-04-15T04:29:16;22.52;;;10.18;;
31206;SDS011;17834;52.992;8.856;2023-04-15T04:31:42;22.23;;;10.23;;
31206;SDS011;17834;52.992;8.856;2023-04-15T04:34:08;20.75;;;9.02;;
31206;SDS011;17834;52.992;8.856;2023-04-15T04:36:34;20.95;;;9.35;;
31206;SDS011;17834;52.992;8.856;2023-04-15T04:39:00;21.75;;;10.40;;
31206;SDS011;17834;52.992;8.856;2023-04-15T04:41:26;22.00;;;10.50;;
31206;SDS011;17834;52.992;8.856;2023-04-15T04:43:52;22.85;;;10.45;;
31206;SDS011;17834;52.992;8.856;2023-04-15T04:46:18;23.00;;;11.13;;
31206;SDS011;17834;52.992;8.856;2023-04-15T04:48:45;22.65;;;10.75;;
31206;SDS011;17834;52.992;8.856;2023-04-15T04:51:11;23.27;;;10.65;;
31206;SDS011;17834;52.992;8.856;2023-04-15T04:53:37;25.33;;;12.00;;
31206;SDS011;17834;52.992;8.856;2023-04-15T04:56:03;25.15;;;11.73;;
31206;SDS011;17834;52.992;8.856;2023-04-15T04:58:30;24.67;;;11.88;;
31206;SDS011;17834;52.992;8.856;2023-04-15T05:00:55;24.80;;;11.43;;
31206;SDS011;17834;52.992;8.856;2023-04-15T05:03:22;25.70;;;12.73;;
31206;SDS011;17834;52.992;8.856;2023-04-15T05:05:48;25.52;;;12.00;;
31206;SDS011;17834;52.992;8.856;2023-04-15T05:08:14;25.77;;;12.48;;
31206;SDS011;17834;52.992;8.856;2023-04-15T05:10:40;27.35;;;13.02;;
31206;SDS011;17834;52.992;8.856;2023-04-15T05:13:06;27.25;;;11.98;;
31206;SDS011;17834;52.992;8.856;2023-04-15T05:15:32;31.35;;;13.30;;
31206;SDS011;17834;52.992;8.856;2023-04-15T05:18:00;28.05;;;13.13;;
31206;SDS011;17834;52.992;8.856;2023-04-15T05:20:27;30.90;;;12.18;;
31206;SDS011;17834;52.992;8.856;2023-04-15T05:22:53;34.92;;;13.50;;
31206;SDS011;17834;52.992;8.856;2023-04-15T05:25:19;27.77;;;12.23;;
31206;SDS011;17834;52.992;8.856;2023-04-15T05:27:45;31.98;;;13.73;;
31206;SDS011;17834;52.992;8.856;2023-04-15T05:30:11;28.50;;;13.27;;
31206;SDS011;17834;52.992;8.856;2023-04-15T05:32:37;27.60;;;12.95;;
31206;SDS011;17834;52.992;8.856;2023-04-15T05:35:03;31.45;;;12.73;;
31206;SDS011;17834;52.992;8.856;2023-04-15T05:37:29;25.45;;;11.23;;
31206;SDS011;17834;52.992;8.856;2023-04-15T05:39:55;26.77;;;12.73;;
31206;SDS011;17834;52.992;8.856;2023-04-15T05:42:22;29.13;;;12.80;;
31206;SDS011;17834;52.992;8.856;2023-04-15T05:44:48;26.67;;;13.25;;
31206;SDS011;17834;52.992;8.856;2023-04-15T05:47:13;30.05;;;13.60;;
31206;SDS011;17834;52.992;8.856;2023-04-15T05:49:40;27.23;;;12.55;;
31206;SDS011;17834;52.992;8.856;2023-04-15T05:52:06;27.15;;;12.25;;
31206;SDS011;17834;52.992;8.856;2023-04-15T05:54:32;26.98;;;12.18;;
31206;SDS011;17834;52.992;8.856;2023-04-15T05:56:58;31.42;;;12.90;;
31206;SDS011;17834;52.992;8.856;2023-04-15T05:59:24;25.13;;;12.75;;
31206;SDS011;17834;52.992;8.856;2023-04-15T06:01:52;28.52;;;13.23;;
31206;SDS011;17834;52.992;8.856;2023-04-15T06:04:18;29.55;;;12.90;;
31206;SDS011;17834;52.992;8.856;2023-04-15T06:06:44;35.00;;;13.32;;
31206;SDS011;17834;52.992;8.856;2023-04-15T06:09:10;29.25;;;12.23;;
31206;SDS011;17834;52.992;8.856;2023-04-15T06:11:36;26.80;;;12.77;;
31206;SDS011;17834;52.992;8.856;2023-04-15T06:14:02;31.60;;;13.90;;
31206;SDS011;17834;52.992;8.856;2023-04-15T06:16:28;32.65;;;13.13;;
31206;SDS011;17834;52.992;8.856;2023-04-15T06:18:54;28.60;;;12.85;;
31206;SDS011;17834;52.992;8.856;2023-04-15T06:21:20;27.67;;;11.13;;
31206;SDS011;17834;52.992;8.856;2023-04-15T06:23:46;28.38;;;11.77;;
31206;SDS011;17834;52.992;8.856;2023-04-15T06:26:12;25.75;;;10.98;;
31206;SDS011;17834;52.992;8.856;2023-04-15T06:28:38;29.55;;;13.10;;
31206;SDS011;17834;52.992;8.856;2023-04-15T06:31:04;27.15;;;11.68;;
31206;SDS011;17834;52.992;8.856;2023-04-15T06:33:31;29.45;;;13.20;;
31206;SDS011;17834;52.992;8.856;2023-04-15T06:35:57;27.70;;;11.98;;
31206;SDS011;17834;52.992;8.856;2023-04-15T06:38:23;34.53;;;13.10;;
31206;SDS011;17834;52.992;8.856;2023-04-15T06:40:49;28.25;;;12.10;;
31206;SDS011;17834;52.992;8.856;2023-04-15T06:43:15;28.63;;;12.32;;
31206;SDS011;17834;52.992;8.856;2023-04-15T06:45:41;30.17;;;12.70;;
31206;SDS011;17834;52.992;8.856;2023-04-15T06:48:07;26.05;;;11.85;;
31206;SDS011;17834;52.992;8.856;2023-04-15T06:50:33;27.50;;;12.48;;
31206;SDS011;17834;52.992;8.856;2023-04-15T06:52:59;25.25;;;11.10;;
31206;SDS011;17834;52.992;8.856;2023-04-15T06:55:26;27.05;;;11.85;;
31206;SDS011;17834;52.992;8.856;2023-04-15T06:57:52;25.70;;;12.30;;
31206;SDS011;17834;52.992;8.856;2023-04-15T07:00:18;23.08;;;11.40;;
31206;SDS011;17834;52.992;8.856;2023-04-15T07:02:44;22.90;;;10.13;;
31206;SDS011;17834;52.992;8.856;2023-04-15T07:05:10;26.55;;;11.60;;
31206;SDS011;17834;52.992;8.856;2023-04-15T07:07:36;25.98;;;11.77;;
31206;SDS011;17834;52.992;8.856;2023-04-15T07:10:02;29.52;;;12.25;;
31206;SDS011;17834;52.992;8.856;2023-04-15T07:12:29;26.20;;;12.23;;
31206;SDS011;17834;52.992;8.856;2023-04-15T07:14:55;28.17;;;12.77;;
31206;SDS011;17834;52.992;8.856;2023-04-15T07:17:21;30.60;;;11.77;;
31206;SDS011;17834;52.992;8.856;2023-04-15T07:19:47;26.00;;;11.35;;
31206;SDS011;17834;52.992;8.856;2023-04-15T07:22:13;32.17;;;12.43;;
31206;SDS011;17834;52.992;8.856;2023-04-15T07:24:39;27.77;;;11.68;;
31206;SDS011;17834;52.992;8.856;2023-04-15T07:27:05;29.40;;;11.15;;
31206;SDS011;17834;52.992;8.856;2023-04-15T07:29:31;31.40;;;12.68;;
31206;SDS011;17834;52.992;8.856;2023-04-15T07:31:57;27.40;;;11.13;;
31206;SDS011;17834;52.992;8.856;2023-04-15T07:34:23;27.83;;;11.13;;
31206;SDS011;17834;52.992;8.856;2023-04-15T07:36:49;22.48;;;10.60;;
31206;SDS011;17834;52.992;8.856;2023-04-15T07:39:18;24.90;;;11.85;;
31206;SDS011;17834;52.992;8.856;2023-04-15T07:41:45;26.85;;;11.15;;
31206;SDS011;17834;52.992;8.856;2023-04-15T07:44:11;24.40;;;10.70;;
31206;SDS011;17834;52.992;8.856;2023-04-15T07:46:37;20.08;;;9.65;;
31206;SDS011;17834;52.992;8.856;2023-04-15T07:49:03;26.80;;;10.73;;
31206;SDS011;17834;52.992;8.856;2023-04-15T07:51:29;25.15;;;11.35;;
31206;SDS011;17834;52.992;8.856;2023-04-15T07:53:56;23.35;;;10.75;;
31206;SDS011;17834;52.992;8.856;2023-04-15T07:56:22;25.90;;;10.98;;
31206;SDS011;17834;52.992;8.856;2023-04-15T07:58:48;29.20;;;11.70;;
31206;SDS011;17834;52.992;8.856;2023-04-15T08:01:14;22.02;;;10.98;;
31206;SDS011;17834;52.992;8.856;2023-04-15T08:03:41;25.38;;;11.52;;
31206;SDS011;17834;52.992;8.856;2023-04-15T08:06:07;22.13;;;11.02;;
31206;SDS011;17834;52.992;8.856;2023-04-15T08:08:33;23.55;;;11.55;;
31206;SDS011;17834;52.992;8.856;2023-04-15T08:10:59;18.98;;;9.98;;
31206;SDS011;17834;52.992;8.856;2023-04-15T08:13:25;21.45;;;10.23;;
31206;SDS011;17834;52.992;8.856;2023-04-15T08:18:36;21.55;;;10.95;;
31206;SDS011;17834;52.992;8.856;2023-04-15T08:21:02;23.58;;;11.20;;
31206;SDS011;17834;52.992;8.856;2023-04-15T08:23:29;22.20;;;10.65;;
31206;SDS011;17834;52.992;8.856;2023-04-15T08:25:55;21.42;;;9.98;;
31206;SDS011;17834;52.992;8.856;2023-04-15T08:28:21;17.88;;;10.00;;
31206;SDS011;17834;52.992;8.856;2023-04-15T08:30:47;17.88;;;9.38;;
31206;SDS011;17834;52.992;8.856;2023-04-15T08:33:13;19.70;;;10.07;;
31206;SDS011;17834;52.992;8.856;2023-04-15T08:35:39;18.42;;;9.45;;
31206;SDS011;17834;52.992;8.856;2023-04-15T08:38:06;18.60;;;8.95;;
31206;SDS011;17834;52.992;8.856;2023-04-15T08:40:34;18.63;;;9.70;;
31206;SDS011;17834;52.992;8.856;2023-04-15T08:43:04;19.65;;;9.48;;
31206;SDS011;17834;52.992;8.856;2023-04-15T08:45:32;17.55;;;9.20;;
31206;SDS011;17834;52.992;8.856;2023-04-15T08:47:58;17.52;;;9.52;;
31206;SDS011;17834;52.992;8.856;2023-04-15T08:50:25;20.92;;;10.18;;
31206;SDS011;17834;52.992;8.856;2023-04-15T08:52:54;17.02;;;8.55;;
31206;SDS011;17834;52.992;8.856;2023-04-15T08:55:20;17.38;;;8.90;;
31206;SDS011;17834;52.992;8.856;2023-04-15T08:57:46;17.50;;;9.55;;
31206;SDS011;17834;52.992;8.856;2023-04-15T09:00:13;17.10;;;8.75;;
31206;SDS011;17834;52.992;8.856;2023-04-15T09:02:39;17.98;;;8.75;;
31206;SDS011;17834;52.992;8.856;2023-04-15T09:05:06;15.55;;;8.15;;
31206;SDS011;17834;52.992;8.856;2023-04-15T09:07:33;15.60;;;8.73;;
31206;SDS011;17834;52.992;8.856;2023-04-15T09:10:00;18.17;;;9.02;;
31206;SDS011;17834;52.992;8.856;2023-04-15T09:12:26;16.67;;;8.70;;
31206;SDS011;17834;52.992;8.856;2023-04-15T09:14:52;17.08;;;8.57;;
31206;SDS011;17834;52.992;8.856;2023-04-15T09:17:19;18.17;;;8.43;;
31206;SDS011;17834;52.992;8.856;2023-04-15T09:19:45;18.52;;;9.63;;
31206;SDS011;17834;52.992;8.856;2023-04-15T09:22:11;17.08;;;9.05;;
31206;SDS011;17834;52.992;8.856;2023-04-15T09:24:38;15.93;;;8.45;;
31206;SDS011;17834;52.992;8.856;2023-04-15T09:27:06;15.57;;;8.52;;
31206;SDS011;17834;52.992;8.856;2023-04-15T09:29:32;18.58;;;8.00;;
31206;SDS011;17834;52.992;8.856;2023-04-15T09:32:11;16.75;;;8.25;;
31206;SDS011;17834;52.992;8.856;2023-04-15T09:34:37;19.10;;;9.23;;
31206;SDS011;17834;52.992;8.856;2023-04-15T09:37:03;15.65;;;8.63;;
31206;SDS011;17834;52.992;8.856;2023-04-15T09:39:49;17.67;;;8.95;;
31206;SDS011;17834;52.992;8.856;2023-04-15T09:42:15;17.52;;;8.20;;
31206;SDS011;17834;52.992;8.856;2023-04-15T09:44:48;16.90;;;8.88;;
31206;SDS011;17834;52.992;8.856;2023-04-15T09:47:28;17.30;;;8.93;;
31206;SDS011;17834;52.992;8.856;2023-04-15T09:49:58;15.80;;;8.25;;
31206;SDS011;17834;52.992;8.856;2023-04-15T09:52:24;15.80;;;8.15;;
31206;SDS011;17834;52.992;8.856;2023-04-15T09:54:52;15.07;;;8.25;;
31206;SDS011;17834;52.992;8.856;2023-04-15T09:57:21;16.20;;;7.60;;
31206;SDS011;17834;52.992;8.856;2023-04-15T09:59:50;17.17;;;7.93;;
31206;SDS011;17834;52.992;8.856;2023-04-15T10:02:17;16.70;;;8.57;;
31206;SDS011;17834;52.992;8.856;2023-04-15T10:04:44;18.58;;;7.90;;
31206;SDS011;17834;52.992;8.856;2023-04-15T10:07:12;13.20;;;7.75;;
31206;SDS011;17834;52.992;8.856;2023-04-15T10:09:38;18.20;;;8.70;;
31206;SDS011;17834;52.992;8.856;2023-04-15T10:12:04;14.07;;;7.70;;
31206;SDS011;17834;52.992;8.856;2023-04-15T10:14:32;16.15;;;8.75;;
31206;SDS011;17834;52.992;8.856;2023-04-15T10:16:59;15.25;;;8.35;;
31206;SDS011;17834;52.992;8.856;2023-04-15T10:19:26;16.10;;;8.40;;
31206;SDS011;17834;52.992;8.856;2023-04-15T10:21:52;17.23;;;9.20;;
31206;SDS011;17834;52.992;8.856;2023-04-15T10:24:19;20.20;;;8.95;;
31206;SDS011;17834;52.992;8.856;2023-04-15T10:26:45;16.80;;;9.05;;
31206;SDS011;17834;52.992;8.856;2023-04-15T10:29:11;19.80;;;9.32;;
31206;SDS011;17834;52.992;8.856;2023-04-15T10:31:37;17.60;;;9.65;;
31206;SDS011;17834;52.992;8.856;2023-04-15T10:34:04;23.25;;;9.73;;
31206;SDS011;17834;52.992;8.856;2023-04-15T10:36:31;15.98;;;9.32;;
31206;SDS011;17834;52.992;8.856;2023-04-15T10:38:57;19.92;;;9.75;;
31206;SDS011;17834;52.992;8.856;2023-04-15T10:41:24;19.63;;;9.57;;
31206;SDS011;17834;52.992;8.856;2023-04-15T10:43:52;20.40;;;10.25;;
31206;SDS011;17834;52.992;8.856;2023-04-15T10:46:23;21.52;;;10.15;;
31206;SDS011;17834;52.992;8.856;2023-04-15T10:48:50;28.77;;;11.65;;
31206;SDS011;17834;52.992;8.856;2023-04-15T10:51:25;24.67;;;11.95;;
31206;SDS011;17834;52.992;8.856;2023-04-15T10:53:54;21.52;;;11.68;;
31206;SDS011;17834;52.992;8.856;2023-04-15T10:56:21;22.83;;;10.93;;
31206;SDS011;17834;52.992;8.856;2023-04-15T10:58:46;24.05;;;11.10;;
31206;SDS011;17834;52.992;8.856;2023-04-15T11:01:12;24.40;;;12.10;;
31206;SDS011;17834;52.992;8.856;2023-04-15T11:03:39;26.60;;;12.13;;
31206;SDS011;17834;52.992;8.856;2023-04-15T11:06:07;24.10;;;11.45;;
31206;SDS011;17834;52.992;8.856;2023-04-15T11:11:18;23.95;;;11.45;;
31206;SDS011;17834;52.992;8.856;2023-04-15T11:13:48;22.48;;;11.32;;
31206;SDS011;17834;52.992;8.856;2023-04-15T11:16:15;24.95;;;11.15;;
31206;SDS011;17834;52.992;8.856;2023-04-15T11:18:41;22.98;;;11.02;;
31206;SDS011;17834;52.992;8.856;2023-04-15T11:21:07;25.02;;;11.60;;
31206;SDS011;17834;52.992;8.856;2023-04-15T11:23:40;24.00;;;11.18;;
31206;SDS011;17834;52.992;8.856;2023-04-15T11:26:13;24.73;;;11.55;;
31206;SDS011;17834;52.992;8.856;2023-04-15T11:28:40;25.90;;;12.10;;
31206;SDS011;17834;52.992;8.856;2023-04-15T11:31:15;29.52;;;12.77;;
31206;SDS011;17834;52.992;8.856;2023-04-15T11:33:52;30.40;;;12.02;;
31206;SDS011;17834;52.992;8.856;2023-04-15T11:36:18;29.13;;;11.75;;
31206;SDS011;17834;52.992;8.856;2023-04-15T11:38:45;20.77;;;10.63;;
31206;SDS011;17834;52.992;8.856;2023-04-15T11:41:11;27.70;;;12.23;;
31206;SDS011;17834;52.992;8.856;2023-04-15T11:43:37;27.05;;;12.80;;
31206;SDS011;17834;52.992;8.856;2023-04-15T11:46:03;30.48;;;12.52;;
31206;SDS011;17834;52.992;8.856;2023-04-15T11:48:33;34.72;;;14.30;;
31206;SDS011;17834;52.992;8.856;2023-04-15T11:51:01;29.02;;;13.07;;
31206;SDS011;17834;52.992;8.856;2023-04-15T11:53:46;32.22;;;12.43;;
31206;SDS011;17834;52.992;8.856;2023-04-15T11:56:19;27.52;;;11.52;;
31206;SDS011;17834;52.992;8.856;2023-04-15T11:58:46;36.30;;;15.10;;
31206;SDS011;17834;52.992;8.856;2023-04-15T12:01:14;36.13;;;14.93;;
31206;SDS011;17834;52.992;8.856;2023-04-15T12:03:41;42.20;;;15.60;;
31206;SDS011;17834;52.992;8.856;2023-04-15T12:13:53;36.95;;;15.10;;
31206;SDS011;17834;52.992;8.856;2023-04-15T12:16:20;41.13;;;16.13;;
31206;SDS011;17834;52.992;8.856;2023-04-15T12:18:49;36.58;;;16.20;;
31206;SDS011;17834;52.992;8.856;2023-04-15T12:21:17;38.83;;;18.10;;
31206;SDS011;17834;52.992;8.856;2023-04-15T12:23:50;47.78;;;17.50;;
31206;SDS011;17834;52.992;8.856;2023-04-15T12:26:16;37.97;;;16.05;;
31206;SDS011;17834;52.992;8.856;2023-04-15T12:28:43;45.42;;;19.55;;
31206;SDS011;17834;52.992;8.856;2023-04-15T12:31:10;45.63;;;17.80;;
31206;SDS011;17834;52.992;8.856;2023-04-15T12:33:37;43.45;;;16.92;;
31206;SDS011;17834;52.992;8.856;2023-04-15T12:36:03;51.30;;;19.67;;
31206;SDS011;17834;52.992;8.856;2023-04-15T12:38:30;51.22;;;19.75;;
31206;SDS011;17834;52.992;8.856;2023-04-15T12:40:57;51.45;;;18.42;;
31206;SDS011;17834;52.992;8.856;2023-04-15T12:43:23;48.08;;;18.52;;
31206;SDS011;17834;52.992;8.856;2023-04-15T12:45:49;49.97;;;18.85;;
31206;SDS011;17834;52.992;8.856;2023-04-15T12:48:15;45.90;;;19.88;;
31206;SDS011;17834;52.992;8.856;2023-04-15T12:50:41;49.63;;;19.50;;
31206;SDS011;17834;52.992;8.856;2023-04-15T12:53:07;47.90;;;19.33;;
31206;SDS011;17834;52.992;8.856;2023-04-15T12:55:33;47.45;;;19.88;;
31206;SDS011;17834;52.992;8.856;2023-04-15T12:57:59;46.72;;;19.50;;
31206;SDS011;17834;52.992;8.856;2023-04-15T13:00:25;53.28;;;19.33;;
31206;SDS011;17834;52.992;8.856;2023-04-15T13:02:51;50.38;;;20.65;;
31206;SDS011;17834;52.992;8.856;2023-04-15T13:05:17;53.40;;;21.00;;
31206;SDS011;17834;52.992;8.856;2023-04-15T13:07:43;53.22;;;20.25;;
31206;SDS011;17834;52.992;8.856;2023-04-15T13:10:09;52.90;;;20.48;;
31206;SDS011;17834;52.992;8.856;2023-04-15T13:12:35;49.25;;;20.48;;
31206;SDS011;17834;52.992;8.856;2023-04-15T13:15:02;48.80;;;19.15;;
31206;SDS011;17834;52.992;8.856;2023-04-15T13:17:28;57.08;;;21.27;;
31206;SDS011;17834;52.992;8.856;2023-04-15T13:19:54;50.67;;;22.08;;
31206;SDS011;17834;52.992;8.856;2023-04-15T13:22:21;52.13;;;20.75;;
31206;SDS011;17834;52.992;8.856;2023-04-15T13:24:47;54.03;;;21.77;;
31206;SDS011;17834;52.992;8.856;2023-04-15T13:27:13;52.47;;;20.98;;
31206;SDS011;17834;52.992;8.856;2023-04-15T13:29:39;50.83;;;21.38;;
31206;SDS011;17834;52.992;8.856;2023-04-15T13:32:05;58.90;;;23.40;;
31206;SDS011;17834;52.992;8.856;2023-04-15T13:34:31;55.13;;;21.70;;
31206;SDS011;17834;52.992;8.856;2023-04-15T13:36:57;54.40;;;21.88;;
31206;SDS011;17834;52.992;8.856;2023-04-15T13:39:23;55.95;;;23.33;;
31206;SDS011;17834;52.992;8.856;2023-04-15T13:41:49;51.75;;;21.75;;
31206;SDS011;17834;52.992;8.856;2023-04-15T13:44:15;57.63;;;24.02;;
31206;SDS011;17834;52.992;8.856;2023-04-15T13:46:41;50.90;;;22.10;;
31206;SDS011;17834;52.992;8.856;2023-04-15T13:49:07;47.47;;;20.52;;
31206;SDS011;17834;52.992;8.856;2023-04-15T13:51:33;53.63;;;22.08;;
31206;SDS011;17834;52.992;8.856;2023-04-15T13:54:04;51.13;;;22.73;;
31206;SDS011;17834;52.992;8.856;2023-04-15T13:56:30;47.55;;;21.05;;
31206;SDS011;17834;52.992;8.856;2023-04-15T13:58:56;50.70;;;20.92;;
31206;SDS011;17834;52.992;8.856;2023-04-15T14:01:25;42.95;;;21.00;;
31206;SDS011;17834;52.992;8.856;2023-04-15T14:03:51;45.70;;;21.10;;
31206;SDS011;17834;52.992;8.856;2023-04-15T14:06:17;44.53;;;21.23;;
31206;SDS011;17834;52.992;8.856;2023-04-15T14:08:43;40.42;;;20.50;;
31206;SDS011;17834;52.992;8.856;2023-04-15T14:11:10;42.40;;;20.02;;
31206;SDS011;17834;52.992;8.856;2023-04-15T14:13:36;45.60;;;19.80;;
31206;SDS011;17834;52.992;8.856;2023-04-15T14:16:02;45.80;;;21.02;;
31206;SDS011;17834;52.992;8.856;2023-04-15T14:18:28;42.15;;;20.10;;
31206;SDS011;17834;52.992;8.856;2023-04-15T14:20:55;45.03;;;20.45;;
31206;SDS011;17834;52.992;8.856;2023-04-15T14:23:21;41.33;;;20.13;;
31206;SDS011;17834;52.992;8.856;2023-04-15T14:25:47;45.38;;;20.98;;
31206;SDS011;17834;52.992;8.856;2023-04-15T14:28:13;46.08;;;20.35;;
31206;SDS011;17834;52.992;8.856;2023-04-15T14:30:39;42.55;;;20.85;;
31206;SDS011;17834;52.992;8.856;2023-04-15T14:33:05;34.05;;;19.13;;
31206;SDS011;17834;52.992;8.856;2023-04-15T14:35:31;35.30;;;18.63;;